Time;durP1;ratioP1;P1;durP2;ratioP2;P2;SDS_P1;SDS_P2;PMS_P1;PMS_P2;Temp;Humidity;BMP_temperature;BMP_pressure;BME280_temperature;BME280_humidity;BME280_pressure;Samples;Min_cycle;Max_cycle;Signal;HPM_P1;HPM_P2
2021/05/18 00:02:14;;;;;;;7.25;1.58;;;8.70;99.90;;;;;;5056676;28;20032;-74
2021/05/18 00:04:39;;;;;;;6.32;1.70;;;8.70;99.90;;;;;;5056193;28;20386;-74
2021/05/18 00:07:06;;;;;;;6.95;2.65;;;8.70;99.90;;;;;;5056248;28;20017;-73
2021/05/18 00:12:16;;;;;;;7.78;2.83;;;8.60;99.90;;;;;;5056637;28;20040;-73
2021/05/18 00:14:42;;;;;;;7.72;1.73;;;8.60;99.90;;;;;;5056170;28;20025;-73
2021/05/18 00:17:07;;;;;;;11.18;2.75;;;8.60;99.90;;;;;;5038276;28;20027;-73
2021/05/18 00:19:33;;;;;;;11.40;2.13;;;8.60;99.90;;;;;;5056119;28;20083;-73
2021/05/18 00:21:59;;;;;;;12.63;2.42;;;8.60;99.90;;;;;;5055983;28;20032;-73
2021/05/18 00:24:24;;;;;;;6.72;2.70;;;8.60;99.90;;;;;;5055919;28;20029;-72
2021/05/18 00:26:50;;;;;;;10.05;3.08;;;8.60;99.90;;;;;;5055900;28;20421;-71
2021/05/18 00:29:16;;;;;;;18.73;4.03;;;8.60;99.90;;;;;;5071646;23;20071;-73
2021/05/18 00:31:41;;;;;;;12.70;2.33;;;8.60;99.90;;;;;;5076246;28;20038;-73
2021/05/18 00:34:07;;;;;;;9.07;2.50;;;8.60;99.90;;;;;;5075700;28;20078;-71
2021/05/18 00:36:33;;;;;;;8.38;2.80;;;8.70;99.90;;;;;;5075789;28;20416;-72
2021/05/18 00:38:58;;;;;;;12.07;2.58;;;8.70;99.90;;;;;;5057855;28;20439;-72
2021/05/18 00:41:24;;;;;;;13.00;3.63;;;8.60;99.90;;;;;;5075718;28;20086;-72
2021/05/18 00:43:50;;;;;;;12.00;3.45;;;8.60;99.90;;;;;;5075411;28;20025;-74
2021/05/18 00:46:15;;;;;;;11.20;2.60;;;8.50;99.90;;;;;;5075707;28;20052;-74
2021/05/18 00:48:56;;;;;;;15.15;3.83;;;8.60;99.90;;;;;;5074849;28;20036;-74
2021/05/18 00:51:22;;;;;;;10.73;3.05;;;8.50;99.90;;;;;;5074967;28;20104;-74
2021/05/18 00:53:47;;;;;;;6.97;3.03;;;8.50;99.90;;;;;;5057429;28;20028;-74
2021/05/18 00:58:25;;;;;;;11.30;3.20;;;8.50;99.90;;;;;;5065488;28;20044;-73
2021/05/18 00:59:03;;;;;;;12.82;3.88;;;8.50;99.90;;;;;;5052810;28;20052;-73
2021/05/18 01:01:29;;;;;;;10.20;3.45;;;8.50;99.90;;;;;;5037486;28;20395;-74
2021/05/18 01:03:55;;;;;;;10.95;3.03;;;8.50;99.90;;;;;;5055096;28;20028;-73
2021/05/18 01:06:29;;;;;;;8.52;2.78;;;8.50;99.90;;;;;;5055213;28;20021;-74
2021/05/18 01:09:10;;;;;;;13.13;3.92;;;8.50;99.90;;;;;;5037317;28;20482;-74
2021/05/18 01:11:41;;;;;;;14.43;3.30;;;8.50;99.90;;;;;;5037286;28;20032;-73
2021/05/18 01:14:12;;;;;;;10.88;4.18;;;8.50;99.90;;;;;;5055153;28;20506;-73
2021/05/18 01:16:42;;;;;;;12.00;3.47;;;8.50;99.90;;;;;;5055087;28;20021;-73
2021/05/18 01:19:08;;;;;;;10.35;3.80;;;8.50;99.90;;;;;;5072839;28;20420;-72
2021/05/18 01:21:34;;;;;;;14.57;4.97;;;8.50;99.90;;;;;;5074907;28;20029;-72
2021/05/18 01:24:01;;;;;;;9.20;3.83;;;8.60;99.90;;;;;;5040759;28;20028;-72
2021/05/18 01:26:31;;;;;;;12.55;4.25;;;8.60;99.90;;;;;;5054852;28;20055;-72
2021/05/18 01:28:57;;;;;;;13.82;4.03;;;8.60;99.90;;;;;;5054656;28;20028;-71
2021/05/18 01:31:24;;;;;;;9.50;3.75;;;8.70;99.90;;;;;;5054796;28;20029;-72
2021/05/18 01:33:53;;;;;;;11.70;3.80;;;8.70;99.90;;;;;;5036706;28;20048;-73
2021/05/18 01:36:21;;;;;;;12.43;4.05;;;8.70;99.90;;;;;;5054884;28;20405;-73
2021/05/18 01:44:08;;;;;;;14.20;5.65;;;8.70;99.90;;;;;;5074674;28;20075;-72
2021/05/18 01:46:33;;;;;;;13.40;5.20;;;8.80;99.90;;;;;;5074688;28;20020;-72
2021/05/18 01:49:06;;;;;;;12.20;5.85;;;8.90;99.90;;;;;;5074986;28;20021;-72
2021/05/18 01:51:35;;;;;;;11.77;5.15;;;8.90;99.90;;;;;;5074396;28;20021;-73
2021/05/18 01:54:10;;;;;;;43.05;6.82;;;8.90;99.90;;;;;;5074247;28;20028;-72
2021/05/18 01:59:19;;;;;;;18.40;5.88;;;9.10;99.90;;;;;;5074056;28;20108;-75
2021/05/18 02:01:47;;;;;;;17.42;6.38;;;9.10;99.90;;;;;;5074011;28;20028;-75
2021/05/18 02:04:24;;;;;;;21.90;6.40;;;9.10;99.90;;;;;;5073958;28;20016;-75
2021/05/18 02:06:51;;;;;;;17.00;6.07;;;9.20;99.90;;;;;;5073957;28;20021;-75
2021/05/18 02:09:17;;;;;;;18.65;5.30;;;9.20;99.90;;;;;;5038260;28;20025;-75
2021/05/18 02:11:42;;;;;;;14.00;5.70;;;9.30;99.90;;;;;;5054108;28;20021;-75
2021/05/18 02:14:14;;;;;;;15.60;5.78;;;9.30;99.90;;;;;;5035771;28;20375;-74
2021/05/18 02:16:43;;;;;;;19.38;6.53;;;9.40;99.90;;;;;;5053830;28;20017;-74
2021/05/18 02:25:04;;;;;;;13.65;5.10;;;9.50;99.90;;;;;;5054198;28;20079;-74
2021/05/18 02:27:31;;;;;;;15.98;5.85;;;10.90;99.90;;;;;;5054320;28;20094;-75
2021/05/18 02:29:58;;;;;;;12.95;4.70;;;9.50;99.90;;;;;;5053603;28;20037;-75
2021/05/18 02:32:25;;;;;;;15.18;5.72;;;9.50;99.90;;;;;;5035749;28;20040;-76
2021/05/18 02:34:50;;;;;;;12.00;5.60;;;9.40;99.90;;;;;;5036294;28;20389;-74
2021/05/18 02:37:16;;;;;;;12.35;5.00;;;9.50;99.90;;;;;;5053681;28;20091;-74
2021/05/18 02:39:42;;;;;;;14.18;5.43;;;9.50;99.90;;;;;;5055659;28;20028;-72
2021/05/18 02:42:08;;;;;;;13.10;5.10;;;9.40;99.90;;;;;;5073572;28;20021;-72
2021/05/18 02:49:43;;;;;;;14.10;5.15;;;9.50;99.90;;;;;;5053714;28;20125;-73
2021/05/18 02:52:08;;;;;;;17.00;6.22;;;9.60;99.90;;;;;;5053271;28;20025;-73
2021/05/18 02:54:34;;;;;;;16.55;5.68;;;9.60;99.90;;;;;;5035459;28;20113;-72
2021/05/18 02:57:02;;;;;;;19.98;5.93;;;9.70;99.90;;;;;;5053321;28;20109;-71
2021/05/18 03:01:59;;;;;;;18.42;7.25;;;9.70;99.90;;;;;;5051688;28;20049;-75
2021/05/18 03:04:25;;;;;;;14.43;6.78;;;9.60;99.90;;;;;;5053067;28;20033;-75
2021/05/18 03:06:52;;;;;;;18.17;5.90;;;9.60;99.90;;;;;;5042687;28;20034;-75
2021/05/18 03:09:19;;;;;;;15.75;6.38;;;9.70;99.90;;;;;;5048418;28;20025;-73
2021/05/18 03:11:48;;;;;;;18.45;7.32;;;9.70;99.90;;;;;;5052788;28;20053;-73
2021/05/18 03:14:15;;;;;;;13.35;5.70;;;9.70;99.90;;;;;;5053899;28;20025;-72
2021/05/18 03:16:42;;;;;;;21.60;6.45;;;9.70;99.90;;;;;;5057249;28;20017;-73
2021/05/18 03:19:09;;;;;;;19.20;6.72;;;9.70;99.90;;;;;;5057212;28;20021;-73
2021/05/18 03:21:37;;;;;;;20.63;7.47;;;9.70;99.90;;;;;;5039214;28;20021;-73
2021/05/18 03:24:03;;;;;;;17.65;7.15;;;9.80;99.90;;;;;;5057190;28;20355;-73
2021/05/18 03:26:29;;;;;;;19.17;6.53;;;9.80;99.90;;;;;;5039192;28;20013;-73
2021/05/18 03:29:01;;;;;;;16.25;6.47;;;9.80;99.90;;;;;;5044325;28;20036;-73
2021/05/18 03:36:57;;;;;;;22.92;6.80;;;9.90;99.90;;;;;;5036988;28;20037;-72
2021/05/18 03:39:23;;;;;;;20.35;6.97;;;9.90;99.90;;;;;;5036889;28;20104;-72
2021/05/18 03:42:03;;;;;;;14.07;6.65;;;9.90;99.90;;;;;;5020037;28;20032;-72
2021/05/18 03:52:25;;;;;;;14.95;6.13;;;10.00;99.90;;;;;;5054893;28;20051;-74
2021/05/18 03:55:08;;;;;;;25.05;8.65;;;10.10;99.90;;;;;;5040801;28;20064;-74
2021/05/18 04:03:16;;;;;;;18.80;7.70;;;10.10;99.90;;;;;;5086575;22;20466;-75
2021/05/18 04:19:10;;;;;;;19.70;8.60;;;10.20;99.90;;;;;;5063588;28;20424;-87
2021/05/18 04:21:51;;;;;;;22.65;9.73;;;10.20;99.90;;;;;;5035669;28;20021;-87
2021/05/18 04:38:37;;;;;;;19.63;9.02;;;10.20;99.90;;;;;;5035588;28;20513;-86
2021/05/18 05:07:04;;;;;;;26.77;9.48;;;10.80;99.90;;;;;;5055778;28;20040;-87
2021/05/18 05:09:32;;;;;;;22.27;9.45;;;10.80;99.90;;;;;;5046348;28;20021;-86
2021/05/18 05:14:42;;;;;;;26.25;11.13;;;10.90;99.90;;;;;;5055626;28;20504;-87
2021/05/18 05:17:08;;;;;;;19.42;9.43;;;11.00;99.90;;;;;;5055655;28;20398;-87
2021/05/18 05:19:34;;;;;;;21.40;10.05;;;11.00;99.90;;;;;;5062810;28;20024;-87
2021/05/18 05:22:01;;;;;;;23.00;10.10;;;11.00;99.90;;;;;;5038154;28;20047;-87
2021/05/18 05:24:30;;;;;;;22.02;10.27;;;11.10;99.90;;;;;;5037871;28;20021;-86
2021/05/18 05:26:56;;;;;;;25.52;10.70;;;11.20;99.90;;;;;;5056407;28;20021;-87
2021/05/18 05:29:22;;;;;;;21.00;10.27;;;11.20;99.90;;;;;;5047342;28;20027;-87
2021/05/18 05:31:49;;;;;;;23.20;11.52;;;11.40;99.90;;;;;;5052108;28;20033;-87
2021/05/18 05:34:16;;;;;;;25.70;10.27;;;11.40;99.90;;;;;;5044303;28;20028;-87
2021/05/18 05:36:42;;;;;;;21.98;9.38;;;11.50;99.90;;;;;;5041799;28;20057;-86
2021/05/18 05:39:15;;;;;;;25.25;10.52;;;11.50;99.90;;;;;;5046978;28;20473;-87
2021/05/18 05:41:40;;;;;;;20.73;9.75;;;11.50;99.90;;;;;;5047341;28;20115;-86
2021/05/18 05:44:06;;;;;;;22.70;9.60;;;11.60;99.90;;;;;;5038618;28;20484;-86
2021/05/18 05:46:33;;;;;;;22.17;9.60;;;11.80;99.90;;;;;;5039153;28;20027;-86
2021/05/18 05:48:59;;;;;;;21.50;9.45;;;11.60;99.90;;;;;;5058817;28;20021;-87
2021/05/18 05:51:26;;;;;;;21.80;9.82;;;11.00;99.90;;;;;;5059534;28;20025;-87
2021/05/18 05:53:54;;;;;;;24.17;10.25;;;11.50;99.90;;;;;;5090201;28;20019;-87
2021/05/18 05:56:21;;;;;;;22.27;9.65;;;11.50;99.90;;;;;;5061652;28;20031;-87
2021/05/18 05:58:47;;;;;;;22.13;9.02;;;11.60;99.90;;;;;;5039894;28;20017;-87
2021/05/18 06:01:13;;;;;;;24.73;10.43;;;11.60;99.90;;;;;;5043473;28;20496;-87
2021/05/18 06:03:40;;;;;;;21.70;9.63;;;11.60;99.90;;;;;;5038263;28;20025;-87
2021/05/18 06:06:06;;;;;;;18.88;8.75;;;11.40;99.90;;;;;;5037721;28;20021;-87
2021/05/18 06:08:37;;;;;;;25.77;11.10;;;12.10;99.90;;;;;;5059291;28;20112;-86
2021/05/18 06:11:08;;;;;;;21.00;8.48;;;11.80;99.90;;;;;;5037610;28;20114;-86
2021/05/18 06:16:35;;;;;;;18.58;8.75;;;11.90;99.90;;;;;;5064402;28;20100;-85
2021/05/18 06:34:05;;;;;;;21.10;8.77;;;12.30;99.90;;;;;;5058797;28;20063;-84
2021/05/18 06:41:33;;;;;;;15.50;6.88;;;12.40;99.90;;;;;;5058693;28;20052;-85
2021/05/18 06:47:02;;;;;;;14.63;6.28;;;13.00;99.90;;;;;;5057810;28;20036;-86
2021/05/18 06:49:32;;;;;;;15.02;7.10;;;13.30;99.90;;;;;;5040606;28;20067;-85
2021/05/18 06:51:57;;;;;;;11.98;4.45;;;13.80;99.90;;;;;;5041731;28;20043;-85
2021/05/18 06:54:26;;;;;;;11.43;5.25;;;13.90;99.90;;;;;;5041367;28;20029;-84
2021/05/18 06:56:54;;;;;;;12.20;5.20;;;11.90;99.90;;;;;;5058880;28;20075;-85
2021/05/18 07:02:06;;;;;;;10.32;5.05;;;14.80;99.90;;;;;;5027064;28;20104;-85
2021/05/18 07:04:35;;;;;;;9.02;4.00;;;15.00;99.90;;;;;;5061257;28;20489;-85
2021/05/18 07:07:26;;;;;;;9.65;4.53;;;14.30;99.90;;;;;;5043325;28;20034;-85
2021/05/18 07:09:47;;;;;;;10.10;4.55;;;14.20;99.90;;;;;;5057400;28;20025;-85
2021/05/18 07:12:13;;;;;;;7.68;3.22;;;14.30;99.90;;;;;;5063044;28;20489;-85
2021/05/18 07:14:38;;;;;;;8.85;3.22;;;14.40;99.90;;;;;;5041896;28;20094;-85
2021/05/18 07:17:04;;;;;;;8.45;2.67;;;14.20;99.90;;;;;;5043788;28;20025;-84
2021/05/18 07:19:30;;;;;;;5.25;2.45;;;17.60;99.90;;;;;;5062414;28;20025;-85
2021/05/18 07:21:55;;;;;;;4.93;2.53;;;14.20;99.90;;;;;;5045072;28;20035;-85
2021/05/18 07:24:26;;;;;;;8.38;3.33;;;15.60;99.90;;;;;;5044306;28;20029;-85
2021/05/18 07:26:52;;;;;;;11.10;2.78;;;14.20;99.90;;;;;;5044782;28;20059;-85
2021/05/18 07:29:18;;;;;;;5.93;2.65;;;16.30;99.90;;;;;;5043983;28;20103;-86
2021/05/18 07:31:44;;;;;;;6.35;3.35;;;17.60;99.90;;;;;;5042037;28;20029;-84
2021/05/18 07:34:10;;;;;;;6.25;3.38;;;14.60;99.90;;;;;;5059579;28;20032;-85
2021/05/18 07:36:36;;;;;;;6.25;2.45;;;14.70;99.90;;;;;;5039685;28;20028;-87
2021/05/18 07:39:04;;;;;;;6.25;3.60;;;17.90;99.90;;;;;;5044325;28;20417;-85
2021/05/18 07:41:32;;;;;;;8.30;2.97;;;15.10;99.90;;;;;;5040292;28;20033;-84
2021/05/18 07:43:58;;;;;;;4.82;2.15;;;15.10;99.90;;;;;;5057862;28;20274;-84
2021/05/18 07:46:24;;;;;;;4.40;1.52;;;15.30;99.90;;;;;;5058065;28;20021;-84
2021/05/18 07:51:39;;;;;;;3.70;1.88;;;15.30;99.90;;;;;;5058769;28;20049;-84
2021/05/18 07:59:40;;;;;;;6.22;2.03;;;14.90;99.90;;;;;;5057862;28;20040;-84
2021/05/18 08:02:22;;;;;;;4.18;2.00;;;14.70;99.90;;;;;;5060852;28;20029;-84
2021/05/18 08:07:34;;;;;;;7.60;2.92;;;15.50;99.90;;;;;;5061456;28;20032;-84
2021/05/18 08:10:24;;;;;;;7.93;2.95;;;14.10;99.90;;;;;;5061145;28;20029;-85
2021/05/18 08:12:46;;;;;;;8.63;3.30;;;13.90;99.90;;;;;;5060681;28;20029;-84
2021/05/18 08:20:45;;;;;;;6.93;3.90;;;13.80;99.90;;;;;;5061366;28;20106;-84
2021/05/18 08:48:56;;;;;;;7.70;3.55;;;14.60;99.90;;;;;;5059634;28;20050;-85
2021/05/18 09:50:53;;;;;;;2.83;0.30;;;16.80;83.90;;;;;;5060610;28;20075;-85
2021/05/18 10:16:09;;;;;;;2.42;0.20;;;17.60;76.30;;;;;;5059990;28;20094;-84
2021/05/18 10:34:23;;;;;;;5.25;0.90;;;16.50;84.70;;;;;;5066994;28;20062;-86
2021/05/18 10:36:48;;;;;;;1.25;0.30;;;16.40;89.50;;;;;;5044452;28;20025;-86
2021/05/18 10:39:29;;;;;;;1.48;0.10;;;18.20;85.90;;;;;;5060696;28;20105;-86
2021/05/18 10:41:55;;;;;;;1.08;0.30;;;16.00;88.70;;;;;;5045681;28;20021;-86
2021/05/18 10:44:25;;;;;;;0.82;0.22;;;16.10;89.20;;;;;;5048792;28;20036;-86
2021/05/18 10:46:56;;;;;;;0.60;0.22;;;16.60;90.30;;;;;;5048000;28;20052;-86
2021/05/18 10:49:31;;;;;;;1.63;0.20;;;17.00;86.00;;;;;;5049460;28;20028;-86
2021/05/18 10:52:08;;;;;;;3.63;0.28;;;18.00;77.10;;;;;;5049447;28;20071;-86
2021/05/18 10:54:35;;;;;;;2.88;0.30;;;20.80;82.40;;;;;;5048896;28;20037;-86
2021/05/18 10:57:09;;;;;;;0.73;0.20;;;19.50;75.20;;;;;;5069123;28;20033;-85
2021/05/18 10:59:47;;;;;;;1.38;0.80;;;18.20;77.00;;;;;;5049411;28;20056;-86
2021/05/18 11:02:20;;;;;;;3.58;1.27;;;18.40;75.50;;;;;;5067473;28;20051;-87
2021/05/18 11:04:54;;;;;;;2.13;0.30;;;18.20;72.40;;;;;;5067542;28;20032;-86
2021/05/18 11:07:31;;;;;;;1.27;0.30;;;17.80;72.60;;;;;;5047702;28;20013;-85
2021/05/18 11:09:58;;;;;;;1.50;0.40;;;19.90;80.60;;;;;;5048655;28;20018;-87
2021/05/18 11:12:25;;;;;;;2.97;0.55;;;19.80;81.30;;;;;;5046715;28;20112;-86
2021/05/18 11:14:57;;;;;;;2.63;0.50;;;17.80;80.00;;;;;;5046804;28;20032;-86
2021/05/18 11:17:25;;;;;;;0.93;0.20;;;17.90;78.70;;;;;;5047247;28;20028;-86
2021/05/18 11:25:13;;;;;;;1.42;0.20;;;18.60;72.40;;;;;;5063692;28;20056;-87
2021/05/18 11:27:39;;;;;;;1.80;0.20;;;19.00;69.50;;;;;;5065549;28;20029;-86
2021/05/18 11:30:08;;;;;;;1.80;0.30;;;21.40;75.00;;;;;;5045889;28;20523;-87
2021/05/18 11:32:34;;;;;;;2.58;0.20;;;19.40;66.80;;;;;;5047154;28;20114;-86
2021/05/18 11:35:03;;;;;;;1.15;0.10;;;22.30;73.40;;;;;;5065102;28;20389;-86
2021/05/18 11:37:30;;;;;;;3.40;0.25;;;19.70;64.50;;;;;;5050075;28;20025;-85
2021/05/18 11:40:12;;;;;;;0.95;0.10;;;19.80;65.50;;;;;;5051082;28;20439;-85
2021/05/18 11:42:38;;;;;;;2.00;0.15;;;19.90;63.80;;;;;;5068840;28;20450;-86
2021/05/18 11:45:17;;;;;;;1.38;0.20;;;20.10;62.90;;;;;;5070075;28;20025;-86
2021/05/18 11:47:45;;;;;;;8.75;1.02;;;19.90;61.10;;;;;;5048499;28;20432;-86
2021/05/18 11:50:19;;;;;;;0.70;0.23;;;21.50;66.50;;;;;;5051751;28;20021;-86
2021/05/18 11:52:45;;;;;;;0.63;0.00;;;21.20;63.60;;;;;;5050944;28;20283;-87
2021/05/18 11:55:17;;;;;;;2.22;0.10;;;21.00;60.50;;;;;;5065052;28;20025;-86
2021/05/18 11:57:43;;;;;;;3.00;0.20;;;21.10;57.60;;;;;;5069511;28;20041;-86
2021/05/18 12:00:21;;;;;;;0.80;0.10;;;20.90;63.20;;;;;;5069911;28;20025;-87
2021/05/18 12:02:47;;;;;;;2.20;0.75;;;20.50;62.80;;;;;;5051872;28;20544;-87
2021/05/18 12:05:14;;;;;;;2.55;0.00;;;20.30;62.80;;;;;;5052760;28;20025;-86
2021/05/18 12:07:40;;;;;;;1.23;0.10;;;20.30;63.90;;;;;;5049900;28;20025;-85
2021/05/18 12:10:07;;;;;;;0.80;0.00;;;20.40;59.80;;;;;;5070968;28;20051;-87
2021/05/18 12:12:38;;;;;;;1.98;0.25;;;20.20;62.10;;;;;;5055680;28;20017;-86
2021/05/18 12:15:08;;;;;;;0.98;0.03;;;23.40;63.60;;;;;;5052852;28;20033;-85
2021/05/18 12:17:35;;;;;;;0.82;0.43;;;20.60;61.30;;;;;;5054595;28;20028;-85
2021/05/18 12:20:02;;;;;;;0.68;0.08;;;20.80;60.20;;;;;;5069678;28;20028;-85
2021/05/18 12:22:28;;;;;;;1.42;0.08;;;20.70;58.40;;;;;;5052257;28;20017;-86
2021/05/18 12:24:57;;;;;;;3.97;0.10;;;20.40;59.00;;;;;;5053106;28;20064;-86
2021/05/18 12:27:23;;;;;;;1.17;0.05;;;20.20;59.80;;;;;;5069558;28;20017;-87
2021/05/18 12:29:57;;;;;;;0.30;0.05;;;20.60;62.40;;;;;;5049113;28;20036;-87
2021/05/18 12:32:36;;;;;;;0.57;0.08;;;20.20;58.40;;;;;;5047860;28;20028;-87
2021/05/18 12:35:05;;;;;;;5.78;0.20;;;20.40;61.00;;;;;;5048322;28;20020;-87
2021/05/18 12:37:35;;;;;;;;;;;20.80;59.20;;;;;;5049737;28;20033;-86
2021/05/18 12:40:06;;;;;;;0.52;0.08;;;20.60;57.30;;;;;;5065763;28;19909;-86
2021/05/18 12:42:36;;;;;;;1.17;0.28;;;23.20;62.20;;;;;;5048110;28;20430;-86
2021/05/18 12:45:06;;;;;;;1.65;0.63;;;20.30;58.90;;;;;;5065954;28;20024;-87
2021/05/18 12:47:39;;;;;;;0.65;0.47;;;20.20;61.00;;;;;;5064005;28;20058;-87
2021/05/18 12:50:11;;;;;;;4.32;0.40;;;22.70;59.40;;;;;;5049046;28;20084;-87
2021/05/18 12:52:42;;;;;;;2.42;0.28;;;20.20;61.80;;;;;;5048039;28;20028;-86
2021/05/18 12:55:25;;;;;;;0.55;0.08;;;20.30;60.00;;;;;;5046078;28;20044;-87
2021/05/18 12:58:24;;;;;;;1.05;0.10;;;21.00;57.60;;;;;;5063208;28;20474;-87
2021/05/18 13:00:49;;;;;;;1.90;0.00;;;20.70;57.40;;;;;;5046169;28;20104;-87
2021/05/18 13:03:20;;;;;;;0.52;0.05;;;22.80;60.30;;;;;;5043331;28;20486;-88
2021/05/18 13:05:53;;;;;;;2.08;0.00;;;20.80;57.40;;;;;;5045660;28;20094;-88
2021/05/18 13:08:29;;;;;;;0.30;0.00;;;20.90;52.80;;;;;;5046529;28;20032;-87
2021/05/18 13:13:55;;;;;;;1.48;0.00;;;21.50;56.50;;;;;;5065822;28;20025;-87
2021/05/18 13:16:39;;;;;;;1.65;0.10;;;21.90;54.70;;;;;;5044635;28;20025;-87
2021/05/18 13:19:12;;;;;;;0.00;0.00;;;22.80;53.00;;;;;;5046676;28;20124;-87
2021/05/18 13:21:45;;;;;;;1.90;0.00;;;21.60;54.60;;;;;;5064601;28;20446;-87
2021/05/18 13:26:57;;;;;;;0.68;0.00;;;25.00;53.50;;;;;;5064210;28;20055;-88
2021/05/18 13:29:23;;;;;;;0.88;0.00;;;21.60;52.80;;;;;;5064398;28;20017;-86
2021/05/18 13:31:54;;;;;;;2.17;0.00;;;23.20;56.00;;;;;;5045248;28;20025;-88
2021/05/18 13:34:20;;;;;;;0.30;0.00;;;21.70;51.20;;;;;;5050134;28;20025;-87
2021/05/18 13:36:47;;;;;;;1.95;0.00;;;21.50;53.10;;;;;;5067182;28;20108;-87
2021/05/18 13:39:19;;;;;;;0.88;0.00;;;21.60;53.50;;;;;;5047478;28;20522;-86
2021/05/18 13:41:46;;;;;;;0.43;0.00;;;23.10;55.40;;;;;;5067110;28;20021;-88
2021/05/18 13:44:15;;;;;;;2.17;0.10;;;23.60;53.70;;;;;;5048586;28;20112;-86
2021/05/18 13:46:41;;;;;;;1.70;0.22;;;24.70;55.80;;;;;;5047346;28;20096;-87
2021/05/18 13:49:07;;;;;;;1.02;0.00;;;22.00;52.90;;;;;;5041601;28;20427;-86
2021/05/18 13:51:33;;;;;;;0.00;0.00;;;25.10;55.20;;;;;;5044657;28;20059;-88
2021/05/18 13:53:59;;;;;;;0.47;0.20;;;22.30;50.50;;;;;;5045677;28;20051;-87
2021/05/18 13:56:26;;;;;;;0.63;0.05;;;22.40;51.50;;;;;;5046257;28;20021;-88
2021/05/18 13:58:53;;;;;;;0.32;0.00;;;23.50;53.30;;;;;;5059282;28;20059;-87
2021/05/18 14:01:19;;;;;;;1.08;0.00;;;24.60;53.20;;;;;;5042142;28;20028;-87
2021/05/18 14:03:47;;;;;;;1.02;0.00;;;22.70;52.50;;;;;;5044598;28;20017;-88
2021/05/18 14:06:14;;;;;;;0.00;0.00;;;22.60;50.50;;;;;;5043733;28;20037;-87
2021/05/18 14:08:40;;;;;;;0.00;0.00;;;23.00;51.50;;;;;;5058568;28;20025;-88
2021/05/18 14:11:12;;;;;;;1.92;0.00;;;23.10;49.20;;;;;;5042457;28;20024;-86
2021/05/18 14:13:44;;;;;;;2.33;0.32;;;22.70;49.10;;;;;;5043120;28;20048;-87
2021/05/18 14:16:14;;;;;;;1.45;0.20;;;22.90;51.60;;;;;;5039247;28;20112;-87
2021/05/18 14:18:41;;;;;;;0.88;0.47;;;23.20;50.40;;;;;;5039941;28;20438;-88
2021/05/18 14:21:07;;;;;;;1.00;0.00;;;22.90;51.70;;;;;;5045946;28;20025;-88
2021/05/18 14:23:46;;;;;;;1.70;0.00;;;23.20;52.50;;;;;;5042494;28;20025;-87
2021/05/18 14:26:12;;;;;;;0.00;0.00;;;25.40;52.80;;;;;;5061209;28;20036;-88
2021/05/18 14:28:39;;;;;;;2.13;0.00;;;21.70;52.70;;;;;;5046073;28;20028;-87
2021/05/18 14:31:07;;;;;;;0.45;0.00;;;22.30;52.70;;;;;;5043925;28;20024;-87
2021/05/18 14:33:34;;;;;;;0.90;0.00;;;25.10;54.40;;;;;;5042942;28;20028;-87
2021/05/18 14:36:00;;;;;;;0.20;0.00;;;23.30;52.60;;;;;;5045242;28;20021;-87
2021/05/18 14:38:26;;;;;;;0.00;0.00;;;25.20;54.00;;;;;;5043084;28;20025;-88
2021/05/18 14:46:29;;;;;;;0.03;0.00;;;23.00;52.30;;;;;;5061406;28;20082;-88
2021/05/18 14:57:02;;;;;;;2.83;0.08;;;24.00;46.80;;;;;;5058741;28;20029;-87
2021/05/18 14:59:28;;;;;;;0.13;0.00;;;24.60;49.60;;;;;;5060117;28;20040;-87
2021/05/18 15:01:53;;;;;;;1.65;0.08;;;23.90;48.30;;;;;;5042239;28;20421;-87
2021/05/18 15:04:19;;;;;;;1.45;0.00;;;25.20;50.00;;;;;;5043486;28;20028;-88
2021/05/18 15:06:45;;;;;;;1.27;0.00;;;27.00;47.40;;;;;;5041222;28;20029;-88
2021/05/18 15:09:10;;;;;;;1.85;0.00;;;25.00;47.50;;;;;;5059144;28;20017;-88
2021/05/18 15:11:36;;;;;;;0.95;0.00;;;25.40;46.70;;;;;;5058736;28;20386;-89
2021/05/18 15:14:03;;;;;;;1.50;0.10;;;25.70;45.50;;;;;;5041292;28;20021;-88
2021/05/18 15:16:29;;;;;;;1.08;0.10;;;26.10;43.40;;;;;;5040702;28;20025;-88
2021/05/18 15:19:02;;;;;;;0.00;0.00;;;26.50;44.40;;;;;;5058868;28;20587;-88
2021/05/18 15:21:28;;;;;;;1.88;0.00;;;26.80;43.90;;;;;;5041765;28;20025;-88
2021/05/18 15:23:54;;;;;;;0.28;0.00;;;29.30;44.20;;;;;;5059379;28;20044;-88
2021/05/18 15:26:19;;;;;;;0.52;0.00;;;27.50;42.80;;;;;;5041583;28;20032;-87
2021/05/18 15:28:48;;;;;;;0.10;0.00;;;27.80;40.40;;;;;;5043437;28;20052;-86
2021/05/18 15:31:14;;;;;;;0.40;0.00;;;27.60;41.70;;;;;;5042767;28;20017;-88
2021/05/18 15:33:41;;;;;;;0.00;0.00;;;27.60;40.50;;;;;;5039958;28;20049;-87
2021/05/18 15:36:07;;;;;;;0.30;0.00;;;27.50;38.80;;;;;;5057767;28;20025;-88
2021/05/18 15:38:38;;;;;;;0.32;0.00;;;26.70;39.60;;;;;;5042165;28;20021;-88
2021/05/18 15:41:08;;;;;;;1.20;0.00;;;27.40;39.80;;;;;;5042168;28;20021;-88
2021/05/18 15:43:35;;;;;;;1.27;0.00;;;27.50;41.00;;;;;;5058090;28;20371;-89
2021/05/18 15:46:02;;;;;;;0.90;0.10;;;30.50;41.10;;;;;;5039566;28;20048;-88
2021/05/18 15:48:28;;;;;;;0.10;0.00;;;28.40;38.30;;;;;;5039269;28;20029;-87
2021/05/18 15:50:54;;;;;;;0.95;0.00;;;28.30;39.50;;;;;;5038775;28;20018;-89
2021/05/18 15:53:19;;;;;;;0.00;0.00;;;28.30;36.70;;;;;;5039188;28;20017;-88
2021/05/18 15:55:45;;;;;;;3.30;0.00;;;28.80;39.00;;;;;;5039626;28;20482;-88
2021/05/18 15:58:11;;;;;;;0.17;0.00;;;31.00;41.10;;;;;;5059833;28;20025;-88
2021/05/18 16:00:37;;;;;;;1.00;0.00;;;29.70;39.10;;;;;;5059483;28;20013;-89
2021/05/18 16:03:04;;;;;;;0.00;0.00;;;28.00;38.00;;;;;;5077424;28;20025;-89
2021/05/18 16:05:34;;;;;;;1.73;0.00;;;27.40;39.90;;;;;;5067642;23;20191;-88
2021/05/18 16:08:58;;;;;;;0.70;0.00;;;27.20;40.90;;;;;;5021656;28;20029;-88
2021/05/18 16:10:49;;;;;;;1.73;0.00;;;27.30;41.50;;;;;;5059116;28;20116;-87
2021/05/18 16:13:15;;;;;;;0.00;0.00;;;27.80;39.50;;;;;;5051389;28;20078;-88
2021/05/18 16:15:41;;;;;;;0.17;0.03;;;28.10;38.90;;;;;;5043010;28;20040;-88
2021/05/18 16:18:06;;;;;;;0.88;0.03;;;27.80;38.00;;;;;;5050107;28;20396;-88
2021/05/18 16:20:32;;;;;;;0.10;0.00;;;27.80;38.60;;;;;;5056199;28;20025;-88
2021/05/18 16:22:57;;;;;;;0.30;0.10;;;27.60;39.30;;;;;;5059232;28;20031;-88
2021/05/18 16:25:23;;;;;;;2.30;0.00;;;28.00;39.40;;;;;;5060001;28;20032;-88
2021/05/18 16:27:49;;;;;;;0.75;0.00;;;27.90;37.20;;;;;;5077146;28;20416;-87
2021/05/18 16:30:15;;;;;;;0.73;0.10;;;28.20;38.00;;;;;;5059485;28;20077;-88
2021/05/18 16:32:40;;;;;;;1.17;0.00;;;28.60;36.60;;;;;;5057068;28;20017;-88
2021/05/18 16:35:06;;;;;;;0.25;0.00;;;28.60;36.20;;;;;;5040619;28;20036;-88
2021/05/18 16:37:34;;;;;;;0.28;0.00;;;27.70;36.70;;;;;;5039912;28;20036;-88
2021/05/18 16:40:00;;;;;;;0.63;0.00;;;27.80;38.00;;;;;;5058941;28;20025;-88
2021/05/18 16:42:26;;;;;;;0.45;0.00;;;28.60;38.20;;;;;;5039312;28;20167;-88
2021/05/18 16:44:51;;;;;;;1.45;0.00;;;27.60;37.90;;;;;;5058196;28;20025;-88
2021/05/18 16:47:17;;;;;;;1.85;0.00;;;28.60;37.40;;;;;;5039227;28;20083;-88
2021/05/18 16:49:46;;;;;;;0.65;0.10;;;28.20;36.00;;;;;;5040625;28;20021;-88
2021/05/18 16:52:11;;;;;;;1.02;0.10;;;28.50;36.10;;;;;;5039207;28;20036;-88
2021/05/18 16:54:37;;;;;;;0.10;0.00;;;28.40;35.30;;;;;;5039280;28;20029;-87
2021/05/18 16:57:03;;;;;;;0.22;0.00;;;28.40;36.40;;;;;;5056736;28;20037;-88
2021/05/18 16:59:28;;;;;;;0.00;0.00;;;28.20;35.30;;;;;;5064810;28;20490;-88
2021/05/18 17:01:54;;;;;;;0.00;0.00;;;27.90;36.20;;;;;;5038560;28;20025;-88
2021/05/18 17:04:20;;;;;;;0.15;0.00;;;27.70;36.90;;;;;;5038931;28;20017;-88
2021/05/18 17:06:46;;;;;;;1.02;0.00;;;27.50;35.80;;;;;;5038731;28;20024;-88
2021/05/18 17:09:12;;;;;;;0.10;0.00;;;26.50;37.80;;;;;;5039182;28;20036;-87
2021/05/18 17:11:40;;;;;;;0.70;0.00;;;25.40;39.60;;;;;;5058743;28;20099;-89
2021/05/18 17:14:06;;;;;;;0.15;0.00;;;26.30;42.10;;;;;;5059592;28;20021;-88
2021/05/18 17:16:32;;;;;;;0.10;0.00;;;23.20;43.50;;;;;;5038380;28;20028;-88
2021/05/18 17:18:58;;;;;;;0.00;0.00;;;24.90;46.70;;;;;;5068138;28;20066;-88
2021/05/18 17:21:24;;;;;;;2.05;0.00;;;21.80;45.70;;;;;;5076469;28;20024;-88
2021/05/18 17:23:50;;;;;;;0.40;0.00;;;21.00;47.50;;;;;;5043919;28;20032;-88
2021/05/18 17:26:15;;;;;;;2.38;0.00;;;20.30;49.40;;;;;;5038554;28;20017;-88
2021/05/18 17:28:41;;;;;;;1.20;0.00;;;19.50;52.20;;;;;;5064712;28;20024;-88
2021/05/18 17:31:12;;;;;;;0.00;0.00;;;19.30;52.40;;;;;;5076621;28;20025;-88
2021/05/18 17:33:37;;;;;;;0.38;0.00;;;18.40;54.60;;;;;;5022331;28;20135;-88
2021/05/18 17:36:06;;;;;;;1.10;0.00;;;18.00;55.50;;;;;;5038862;28;20021;-88
2021/05/18 17:38:32;;;;;;;1.15;0.00;;;17.60;56.90;;;;;;5056605;28;20025;-88
2021/05/18 17:40:58;;;;;;;0.95;0.00;;;17.30;60.50;;;;;;5040202;28;20448;-88
2021/05/18 17:43:26;;;;;;;0.28;0.00;;;18.40;60.20;;;;;;5040120;28;20036;-88
2021/05/18 17:45:52;;;;;;;2.15;0.03;;;16.90;58.80;;;;;;5039934;28;20493;-88